Time,TemperatureF,DewpointF,PressureIn,WindDirection,WindDirectionDegrees,WindSpeedMPH,WindSpeedGustMPH,Humidity,HourlyPrecipIn,Conditions,Clouds,dailyrainin,SoftwareType,DateUTC
2013-01-05 00:10:00,39.1,36.0,30.17,SW,228,0.0,-999.0,89,-99.99,,,0.00,weatherlink.com 1.10,2013-01-05 08:10:00,
2013-01-05 00:25:00,38.7,36.0,30.17,SW,228,0.0,-999.0,89,-99.99,,,0.00,weatherlink.com 1.10,2013-01-05 08:25:00,
2013-01-05 00:40:00,38.6,36.0,30.17,SW,228,0.0,-999.0,89,-99.99,,,0.00,weatherlink.com 1.10,2013-01-05 08:40:00,
2013-01-05 00:55:00,38.0,35.0,30.16,SW,228,0.0,-999.0,89,-99.99,,,0.00,weatherlink.com 1.10,2013-01-05 08:55:00,
2013-01-05 01:10:00,37.8,35.0,30.16,SW,228,0.0,-999.0,90,-99.99,,,0.00,weatherlink.com 1.10,2013-01-05 09:10:00,
2013-01-05 01:25:00,37.7,35.0,30.17,SW,228,0.0,-999.0,90,-99.99,,,0.00,weatherlink.com 1.10,2013-01-05 09:25:00,
2013-01-05 01:40:00,37.2,35.0,30.17,SW,228,0.0,-999.0,90,-99.99,,,0.00,weatherlink.com 1.10,2013-01-05 09:40:00,
2013-01-05 01:56:00,37.3,35.0,30.17,SW,228,0.0,-999.0,90,-99.99,,,0.00,weatherlink.com 1.10,2013-01-05 09:56:00,
2013-01-05 02:11:00,37.0,34.0,30.17,SW,228,0.0,-999.0,90,-99.99,,,0.00,weatherlink.com 1.10,2013-01-05 10:11:00,
2013-01-05 02:26:00,36.8,35.0,30.17,SW,228,0.0,-999.0,91,-99.99,,,0.00,weatherlink.com 1.10,2013-01-05 10:26:00,
2013-01-05 02:41:00,36.8,35.0,30.18,SW,228,0.0,-999.0,91,-99.99,,,0.00,weatherlink.com 1.10,2013-01-05 10:41:00,
2013-01-05 02:56:00,36.5,34.0,30.17,SW,228,0.0,-999.0,91,-99.99,,,0.00,weatherlink.com 1.10,2013-01-05 10:56:00,
2013-01-05 03:11:00,35.9,34.0,30.17,SW,228,0.0,-999.0,91,-99.99,,,0.00,weatherlink.com 1.10,2013-01-05 11:11:00,
2013-01-05 03:26:00,35.7,33.0,30.17,SW,228,0.0,-999.0,91,-99.99,,,0.00,weatherlink.com 1.10,2013-01-05 11:26:00,
2013-01-05 03:41:00,35.7,33.0,30.17,SW,228,0.0,-999.0,91,-99.99,,,0.00,weatherlink.com 1.10,2013-01-05 11:41:00,
2013-01-05 03:56:00,35.4,33.0,30.17,SW,228,0.0,-999.0,91,-99.99,,,0.00,weatherlink.com 1.10,2013-01-05 11:56:00,
2013-01-05 04:11:00,35.0,33.0,30.17,SW,228,0.0,-999.0,91,-99.99,,,0.00,weatherlink.com 1.10,2013-01-05 12:11:00,
2013-01-05 04:26:00,34.6,32.0,30.18,SW,228,0.0,-999.0,91,-99.99,,,0.00,weatherlink.com 1.10,2013-01-05 12:26:00,
2013-01-05 04:41:00,34.6,33.0,30.18,SW,228,0.0,-999.0,92,-99.99,,,0.00,weatherlink.com 1.10,2013-01-05 12:41:00,
2013-01-05 04:56:00,34.6,33.0,30.18,SW,228,0.0,-999.0,92,-99.99,,,0.00,weatherlink.com 1.10,2013-01-05 12:56:00,
2013-01-05 05:11:00,34.8,33.0,30.18,SW,228,0.0,-999.0,92,-99.99,,,0.00,weatherlink.com 1.10,2013-01-05 13:11:00,
2013-01-05 05:26:00,34.6,33.0,30.19,SW,228,0.0,-999.0,92,-99.99,,,0.00,weatherlink.com 1.10,2013-01-05 13:26:00,
2013-01-05 05:41:00,34.2,32.0,30.19,SW,228,0.0,-999.0,92,-99.99,,,0.00,weatherlink.com 1.10,2013-01-05 13:41:00,
2013-01-05 05:56:00,34.6,33.0,30.19,SW,228,0.0,-999.0,92,-99.99,,,0.00,weatherlink.com 1.10,2013-01-05 13:56:00,
2013-01-05 06:11:00,34.2,32.0,30.19,SW,228,0.0,-999.0,92,-99.99,,,0.00,weatherlink.com 1.10,2013-01-05 14:11:00,
2013-01-05 06:26:00,34.4,32.0,30.19,SW,228,0.0,-999.0,92,-99.99,,,0.00,weatherlink.com 1.10,2013-01-05 14:26:00,
2013-01-05 06:41:00,34.0,32.0,30.20,SW,228,0.0,-999.0,92,-99.99,,,0.00,weatherlink.com 1.10,2013-01-05 14:41:00,
2013-01-05 06:56:00,33.6,32.0,30.20,SW,228,0.0,-999.0,92,-99.99,,,0.00,weatherlink.com 1.10,2013-01-05 14:56:00,
2013-01-05 07:11:00,33.5,32.0,30.20,SW,228,0.0,-999.0,92,-99.99,,,0.00,weatherlink.com 1.10,2013-01-05 15:11:00,
2013-01-05 07:26:00,33.6,32.0,30.20,SW,228,0.0,-999.0,92,-99.99,,,0.00,weatherlink.com 1.10,2013-01-05 15:26:00,
2013-01-05 07:41:00,34.8,33.0,30.21,SW,228,0.0,-999.0,93,-99.99,,,0.00,weatherlink.com 1.10,2013-01-05 15:41:00,
2013-01-05 07:56:00,37.6,36.0,30.22,SW,228,0.0,-999.0,94,-99.99,,,0.00,weatherlink.com 1.10,2013-01-05 15:56:00,
2013-01-05 08:11:00,39.3,38.0,30.22,SW,228,0.0,-999.0,94,-99.99,,,0.00,weatherlink.com 1.10,2013-01-05 16:11:00,
2013-01-05 08:26:00,42.6,41.0,30.22,SW,228,0.0,-999.0,93,-99.99,,,0.00,weatherlink.com 1.10,2013-01-05 16:26:00,
2013-01-05 08:41:00,46.4,37.0,30.22,SW,228,0.0,-999.0,70,-99.99,,,0.00,weatherlink.com 1.10,2013-01-05 16:41:00,
2013-01-05 08:56:00,49.0,35.0,30.22,SW,228,0.0,-999.0,60,-99.99,,,0.00,weatherlink.com 1.10,2013-01-05 16:56:00,
2013-01-05 09:11:00,51.4,35.0,30.22,East,82,0.0,-999.0,54,-99.99,,,0.00,weatherlink.com 1.10,2013-01-05 17:11:00,
2013-01-05 09:27:00,53.5,35.0,30.22,East,82,0.0,-999.0,49,-99.99,,,0.00,weatherlink.com 1.10,2013-01-05 17:27:00,
2013-01-05 09:43:00,54.4,33.0,30.22,East,82,0.0,-999.0,45,-99.99,,,0.00,weatherlink.com 1.10,2013-01-05 17:43:00,
2013-01-05 10:12:00,57.1,30.0,30.21,NNE,33,0.0,-999.0,35,-99.99,,,0.00,weatherlink.com 1.10,2013-01-05 18:12:00,
2013-01-05 10:27:00,58.5,31.0,30.21,NNE,32,0.0,-999.0,35,-99.99,,,0.00,weatherlink.com 1.10,2013-01-05 18:27:00,
2013-01-05 10:41:00,59.5,32.0,30.20,WNW,302,0.0,-999.0,35,-99.99,,,0.00,weatherlink.com 1.10,2013-01-05 18:41:00,
2013-01-05 10:56:00,60.5,30.0,30.20,WNW,284,3.0,-999.0,32,-99.99,,,0.00,weatherlink.com 1.10,2013-01-05 18:56:00,
2013-01-05 11:11:00,62.0,29.0,30.19,WNW,296,0.0,-999.0,29,-99.99,,,0.00,weatherlink.com 1.10,2013-01-05 19:11:00,
2013-01-05 11:42:00,63.6,28.0,30.17,NW,321,3.0,-999.0,26,-99.99,,,0.00,weatherlink.com 1.10,2013-01-05 19:42:00,
2013-01-05 11:57:00,63.3,28.0,30.16,NNW,340,1.0,-999.0,26,-99.99,,,0.00,weatherlink.com 1.10,2013-01-05 19:57:00,
2013-01-05 12:12:00,65.2,28.0,30.15,North,5,2.0,-999.0,25,-99.99,,,0.00,weatherlink.com 1.10,2013-01-05 20:12:00,
2013-01-05 12:26:00,65.8,28.0,30.14,SW,229,2.0,-999.0,24,-99.99,,,0.00,weatherlink.com 1.10,2013-01-05 20:26:00,
2013-01-05 12:41:00,65.2,26.0,30.13,WSW,250,0.0,-999.0,23,-99.99,,,0.00,weatherlink.com 1.10,2013-01-05 20:41:00,
2013-01-05 12:57:00,66.7,27.0,30.13,SSW,203,0.0,-999.0,22,-99.99,,,0.00,weatherlink.com 1.10,2013-01-05 20:57:00,
2013-01-05 13:12:00,65.8,26.0,30.13,SW,215,1.0,-999.0,22,-99.99,,,0.00,weatherlink.com 1.10,2013-01-05 21:12:00,
2013-01-05 13:27:00,66.0,37.0,30.12,SW,226,4.0,-999.0,34,-99.99,,,0.00,weatherlink.com 1.10,2013-01-05 21:27:00,
2013-01-05 13:42:00,64.7,43.0,30.12,SSW,204,4.0,-999.0,46,-99.99,,,0.00,weatherlink.com 1.10,2013-01-05 21:42:00,
2013-01-05 13:57:00,64.1,44.0,30.12,SSW,203,4.0,-999.0,48,-99.99,,,0.00,weatherlink.com 1.10,2013-01-05 21:57:00,
2013-01-05 14:11:00,63.2,41.0,30.11,SW,222,3.0,-999.0,45,-99.99,,,0.00,weatherlink.com 1.10,2013-01-05 22:11:00,
2013-01-05 14:27:00,63.9,40.0,30.11,SW,229,4.0,-999.0,42,-99.99,,,0.00,weatherlink.com 1.10,2013-01-05 22:27:00,
2013-01-05 14:42:00,63.0,39.0,30.11,SSW,210,4.0,-999.0,42,-99.99,,,0.00,weatherlink.com 1.10,2013-01-05 22:42:00,
2013-01-05 14:57:00,62.5,40.0,30.11,SW,229,6.0,-999.0,43,-99.99,,,0.00,weatherlink.com 1.10,2013-01-05 22:57:00,
2013-01-05 15:12:00,62.9,42.0,30.12,SW,220,4.0,-999.0,46,-99.99,,,0.00,weatherlink.com 1.10,2013-01-05 23:12:00,
2013-01-05 15:27:00,61.9,41.0,30.11,SW,221,3.0,-999.0,46,-99.99,,,0.00,weatherlink.com 1.10,2013-01-05 23:27:00,
2013-01-05 15:42:00,61.9,39.0,30.11,SSW,213,1.0,-999.0,43,-99.99,,,0.00,weatherlink.com 1.10,2013-01-05 23:42:00,
2013-01-05 15:56:00,61.3,39.0,30.11,NNW,338,0.0,-999.0,44,-99.99,,,0.00,weatherlink.com 1.10,2013-01-05 23:56:00,
2013-01-05 16:11:00,60.7,40.0,30.11,NNW,338,0.0,-999.0,46,-99.99,,,0.00,weatherlink.com 1.10,2013-01-06 00:11:00,
2013-01-05 16:27:00,59.6,40.0,30.11,NNW,331,2.0,-999.0,49,-99.99,,,0.00,weatherlink.com 1.10,2013-01-06 00:27:00,
2013-01-05 16:42:00,58.4,40.0,30.11,NNW,331,0.0,-999.0,51,-99.99,,,0.00,weatherlink.com 1.10,2013-01-06 00:42:00,
2013-01-05 16:57:00,57.1,40.0,30.11,NNW,331,0.0,-999.0,54,-99.99,,,0.00,weatherlink.com 1.10,2013-01-06 00:57:00,
2013-01-05 17:12:00,55.3,41.0,30.11,NNW,331,0.0,-999.0,58,-99.99,,,0.00,weatherlink.com 1.10,2013-01-06 01:12:00,
2013-01-05 17:42:00,52.1,40.0,30.11,NNW,331,0.0,-999.0,64,-99.99,,,0.00,weatherlink.com 1.10,2013-01-06 01:42:00,
2013-01-05 17:56:00,50.7,40.0,30.11,NNW,331,0.0,-999.0,66,-99.99,,,0.00,weatherlink.com 1.10,2013-01-06 01:56:00,
2013-01-05 18:12:00,49.6,40.0,30.11,NNW,331,0.0,-999.0,69,-99.99,,,0.00,weatherlink.com 1.10,2013-01-06 02:12:00,
2013-01-05 18:27:00,48.7,40.0,30.11,NNW,331,0.0,-999.0,71,-99.99,,,0.00,weatherlink.com 1.10,2013-01-06 02:27:00,
2013-01-05 18:42:00,48.1,39.0,30.11,NNW,331,0.0,-999.0,72,-99.99,,,0.00,weatherlink.com 1.10,2013-01-06 02:42:00,
2013-01-05 18:57:00,47.5,40.0,30.11,NNW,331,0.0,-999.0,74,-99.99,,,0.00,weatherlink.com 1.10,2013-01-06 02:57:00,
2013-01-05 19:11:00,47.9,41.0,30.11,NNW,331,0.0,-999.0,76,-99.99,,,0.00,weatherlink.com 1.10,2013-01-06 03:11:00,
2013-01-05 19:27:00,48.8,42.0,30.11,NNW,331,0.0,-999.0,76,-99.99,,,0.00,weatherlink.com 1.10,2013-01-06 03:27:00,
2013-01-05 19:42:00,49.0,42.0,30.11,NNW,331,0.0,-999.0,76,-99.99,,,0.00,weatherlink.com 1.10,2013-01-06 03:42:00,
2013-01-05 19:57:00,48.5,41.0,30.12,NNW,331,0.0,-999.0,76,-99.99,,,0.00,weatherlink.com 1.10,2013-01-06 03:57:00,
2013-01-05 20:12:00,48.1,42.0,30.13,NNW,331,0.0,-999.0,78,-99.99,,,0.00,weatherlink.com 1.10,2013-01-06 04:12:00,
2013-01-05 20:27:00,47.6,41.0,30.13,NNW,331,0.0,-999.0,79,-99.99,,,0.00,weatherlink.com 1.10,2013-01-06 04:27:00,
2013-01-05 20:42:00,47.2,41.0,30.13,NNW,331,0.0,-999.0,80,-99.99,,,0.00,weatherlink.com 1.10,2013-01-06 04:42:00,
2013-01-05 20:57:00,46.9,41.0,30.14,NNW,331,0.0,-999.0,81,-99.99,,,0.00,weatherlink.com 1.10,2013-01-06 04:57:00,
2013-01-05 21:13:00,46.3,41.0,30.14,NNW,331,0.0,-999.0,81,-99.99,,,0.00,weatherlink.com 1.10,2013-01-06 05:13:00,
2013-01-05 21:27:00,45.9,41.0,30.14,NNW,331,0.0,-999.0,83,-99.99,,,0.00,weatherlink.com 1.10,2013-01-06 05:27:00,
2013-01-05 21:42:00,45.4,41.0,30.14,NNW,331,0.0,-999.0,83,-99.99,,,0.00,weatherlink.com 1.10,2013-01-06 05:42:00,
2013-01-05 21:57:00,45.1,41.0,30.14,NNW,331,0.0,-999.0,85,-99.99,,,0.00,weatherlink.com 1.10,2013-01-06 05:57:00,
2013-01-05 22:12:00,45.2,41.0,30.15,NNW,331,0.0,-999.0,85,-99.99,,,0.00,weatherlink.com 1.10,2013-01-06 06:12:00,
2013-01-05 22:27:00,45.5,42.0,30.15,NNW,331,0.0,-999.0,86,-99.99,,,0.00,weatherlink.com 1.10,2013-01-06 06:27:00,
2013-01-05 22:42:00,45.5,42.0,30.14,NNW,331,0.0,-999.0,86,-99.99,,,0.00,weatherlink.com 1.10,2013-01-06 06:42:00,
2013-01-05 22:57:00,45.4,42.0,30.14,NNW,331,0.0,-999.0,86,-99.99,,,0.00,weatherlink.com 1.10,2013-01-06 06:57:00,
2013-01-05 23:12:00,45.2,41.0,30.13,NNW,331,0.0,-999.0,86,-99.99,,,0.00,weatherlink.com 1.10,2013-01-06 07:12:00,
2013-01-05 23:27:00,44.9,41.0,30.14,NNW,331,0.0,-999.0,87,-99.99,,,0.00,weatherlink.com 1.10,2013-01-06 07:27:00,
2013-01-05 23:42:00,44.6,41.0,30.13,NNW,331,0.0,-999.0,87,-99.99,,,0.00,weatherlink.com 1.10,2013-01-06 07:42:00,
2013-01-05 23:58:00,44.5,41.0,30.13,NNW,331,0.0,-999.0,88,-99.99,,,0.00,weatherlink.com 1.10,2013-01-06 07:58:00,